createdAt,value
2018-06-20T00:01:42.877Z,99.60
2018-06-20T00:04:12.104Z,99.70
2018-06-20T00:06:41.353Z,99.60
2018-06-20T00:09:11.715Z,99.20
2018-06-20T00:11:40.973Z,99.20
2018-06-20T00:14:10.197Z,99.30
2018-06-20T00:16:39.399Z,99.20
2018-06-20T00:19:08.592Z,99.60
2018-06-20T00:21:37.851Z,99.90
2018-06-20T00:24:07.051Z,99.70
2018-06-20T00:26:36.252Z,99.60
2018-06-20T00:31:34.271Z,99.90
2018-06-20T00:34:03.576Z,99.90
2018-06-20T00:36:32.808Z,99.90
2018-06-20T00:39:02.456Z,99.90
2018-06-20T00:41:31.783Z,99.90
2018-06-20T00:44:00.984Z,99.90
2018-06-20T00:46:30.189Z,99.90
2018-06-20T00:48:59.388Z,99.90
2018-06-20T00:51:28.652Z,99.90
2018-06-20T00:53:57.917Z,99.90
2018-06-20T00:56:29.435Z,99.90
2018-06-20T00:58:58.637Z,99.90
2018-06-20T01:01:27.901Z,99.90
2018-06-20T01:03:57.136Z,99.90
2018-06-20T01:06:26.401Z,99.90
2018-06-20T01:08:56.956Z,99.90
2018-06-20T01:11:27.052Z,99.90
2018-06-20T01:13:56.320Z,99.90
2018-06-20T01:16:25.550Z,99.90
2018-06-20T01:18:55.085Z,99.90
2018-06-20T01:21:24.344Z,99.90
2018-06-20T01:23:53.548Z,99.90
2018-06-20T01:26:22.747Z,99.90
2018-06-20T01:28:51.973Z,99.90
2018-06-20T01:31:21.231Z,99.90
2018-06-20T01:33:50.446Z,99.90
2018-06-20T01:36:19.671Z,99.90
2018-06-20T01:38:49.147Z,99.90
2018-06-20T01:41:18.478Z,99.90
2018-06-20T01:43:47.752Z,99.90
2018-06-20T01:46:16.970Z,99.90
2018-06-20T01:48:46.204Z,99.90
2018-06-20T01:51:15.443Z,99.90
2018-06-20T01:53:44.680Z,99.90
2018-06-20T01:56:13.908Z,99.90
2018-06-20T01:58:43.139Z,99.90
2018-06-20T02:01:12.471Z,99.90
2018-06-20T02:03:41.695Z,99.90
2018-06-20T02:06:10.941Z,99.90
2018-06-20T02:08:40.171Z,99.90
2018-06-20T02:11:09.441Z,99.90
2018-06-20T02:13:38.696Z,99.90
2018-06-20T02:16:08.347Z,99.90
2018-06-20T02:18:37.567Z,99.90
2018-06-20T02:21:06.847Z,99.90
2018-06-20T02:23:36.072Z,99.90
2018-06-20T02:26:05.653Z,99.90
2018-06-20T02:28:34.875Z,99.90
2018-06-20T02:31:04.203Z,99.90
2018-06-20T02:33:33.416Z,99.90
2018-06-20T02:38:37.408Z,99.90
2018-06-20T02:41:06.775Z,99.90
2018-06-20T02:43:36.033Z,99.90
2018-06-20T02:46:05.412Z,99.90
2018-06-20T02:48:34.637Z,99.90
2018-06-20T02:51:04.007Z,99.90
2018-06-20T02:53:33.204Z,99.90
2018-06-20T02:56:02.407Z,99.90
2018-06-20T02:58:31.606Z,99.90
2018-06-20T03:01:00.873Z,99.90
2018-06-20T03:03:30.072Z,99.90
2018-06-20T03:05:59.403Z,99.90
2018-06-20T03:08:28.603Z,99.90
2018-06-20T03:10:57.871Z,99.90
2018-06-20T03:13:27.205Z,99.90
2018-06-20T03:15:56.431Z,99.90
2018-06-20T03:20:54.868Z,99.90
2018-06-20T03:23:24.092Z,99.90
2018-06-20T03:25:53.315Z,99.90
2018-06-20T03:28:22.550Z,99.90
2018-06-20T03:30:51.867Z,99.90
2018-06-20T03:33:21.100Z,99.90
2018-06-20T03:35:50.291Z,99.90
2018-06-20T03:38:19.548Z,99.90
2018-06-20T03:43:17.484Z,99.90
2018-06-20T03:45:46.803Z,99.90
2018-06-20T03:48:16.044Z,99.90
2018-06-20T03:50:45.348Z,99.90
2018-06-20T03:53:14.576Z,99.90
2018-06-20T03:55:43.777Z,99.90
2018-06-20T03:58:12.996Z,99.90
2018-06-20T04:00:42.279Z,99.90
2018-06-20T04:03:11.567Z,99.90
2018-06-20T04:05:40.796Z,99.90
2018-06-20T04:08:10.056Z,99.90
2018-06-20T04:10:40.468Z,99.90
2018-06-20T04:13:09.776Z,99.90
2018-06-20T04:15:39.103Z,99.90
2018-06-20T04:18:08.474Z,99.90
2018-06-20T04:20:37.823Z,99.90
2018-06-20T04:23:07.104Z,99.90
2018-06-20T04:25:36.372Z,99.90
2018-06-20T04:28:05.676Z,99.90
2018-06-20T04:30:34.996Z,99.90
2018-06-20T04:33:04.242Z,99.90
2018-06-20T04:38:02.222Z,99.90
2018-06-20T04:40:31.619Z,99.90
2018-06-20T04:43:00.928Z,99.90
2018-06-20T04:45:30.233Z,99.90
2018-06-20T04:50:28.480Z,99.90
2018-06-20T04:52:57.754Z,99.90
2018-06-20T04:55:27.071Z,99.90
2018-06-20T04:57:56.684Z,99.90
2018-06-20T05:00:25.924Z,99.90
2018-06-20T05:02:55.229Z,99.90
2018-06-20T05:05:27.396Z,99.90
2018-06-20T05:07:56.708Z,99.90
2018-06-20T05:12:54.853Z,99.90
2018-06-20T05:15:24.220Z,99.90
2018-06-20T05:17:53.509Z,99.90
2018-06-20T05:20:22.807Z,99.90
2018-06-20T05:22:52.189Z,99.50
2018-06-20T05:25:21.457Z,99.50
2018-06-20T05:27:50.714Z,99.00
2018-06-20T05:30:20.330Z,99.10
2018-06-20T05:32:49.618Z,99.00
2018-06-20T05:35:18.893Z,98.20
2018-06-20T05:37:48.224Z,98.60
2018-06-20T05:40:17.646Z,98.20
2018-06-20T05:42:46.903Z,98.00
2018-06-20T05:45:16.194Z,98.30
2018-06-20T05:47:45.503Z,97.80
2018-06-20T05:50:14.803Z,97.80
2018-06-20T05:55:13.000Z,97.80
2018-06-20T05:57:42.276Z,97.10
2018-06-20T06:00:11.592Z,97.60
2018-06-20T06:02:41.345Z,96.60
2018-06-20T06:05:10.701Z,96.60
2018-06-20T06:07:39.925Z,96.60
2018-06-20T06:10:14.389Z,96.70
2018-06-20T06:12:43.895Z,96.70
2018-06-20T06:15:13.229Z,96.30
2018-06-20T06:17:42.828Z,95.80
2018-06-20T06:20:12.283Z,95.70
2018-06-20T06:22:41.945Z,95.80
2018-06-20T06:27:40.160Z,95.80
2018-06-20T06:30:09.445Z,94.90
2018-06-20T06:32:38.856Z,95.80
2018-06-20T06:35:08.152Z,95.40
2018-06-20T06:37:37.461Z,94.40
2018-06-20T06:40:06.725Z,95.00
2018-06-20T06:42:36.094Z,94.70
2018-06-20T06:45:05.541Z,95.20
2018-06-20T06:47:34.840Z,95.30
2018-06-20T06:50:04.325Z,94.70
2018-06-20T06:52:33.589Z,95.00
2018-06-20T06:55:02.926Z,95.20
2018-06-20T06:57:32.251Z,94.90
2018-06-20T07:00:01.794Z,95.20
2018-06-20T07:02:31.211Z,95.30
2018-06-20T07:05:00.460Z,95.50
2018-06-20T07:07:29.765Z,95.00
2018-06-20T07:09:59.055Z,94.80
2018-06-20T07:12:28.445Z,94.30
2018-06-20T07:14:57.679Z,94.70
2018-06-20T07:17:26.987Z,94.10
2018-06-20T07:22:25.222Z,94.90
2018-06-20T07:24:54.532Z,94.10
2018-06-20T07:27:23.852Z,94.20
2018-06-20T07:29:53.171Z,93.70
2018-06-20T07:32:22.568Z,94.80
2018-06-20T07:34:52.156Z,93.90
2018-06-20T07:37:21.524Z,93.60
2018-06-20T07:39:50.811Z,93.90
2018-06-20T07:42:20.372Z,93.60
2018-06-20T07:44:49.616Z,93.80
2018-06-20T07:47:18.889Z,93.50
2018-06-20T07:49:48.180Z,94.20
2018-06-20T07:52:17.578Z,94.40
2018-06-20T07:54:46.856Z,92.70
2018-06-20T07:57:16.164Z,92.50
2018-06-20T07:59:50.726Z,93.20
2018-06-20T08:06:07.313Z,93.30
2018-06-20T08:08:41.651Z,92.90
2018-06-20T08:11:16.424Z,92.70
2018-06-20T08:13:50.907Z,92.50
2018-06-20T08:16:25.192Z,91.90
2018-06-20T08:19:00.082Z,91.30
2018-06-20T08:21:29.599Z,91.80
2018-06-20T08:23:58.884Z,91.90
2018-06-20T08:28:56.939Z,91.30
2018-06-20T08:31:26.221Z,91.20
2018-06-20T08:33:55.792Z,90.40
2018-06-20T08:36:25.060Z,90.40
2018-06-20T08:38:54.352Z,89.40
2018-06-20T08:41:24.236Z,89.40
2018-06-20T08:43:53.515Z,88.80
2018-06-20T08:46:22.768Z,88.40
2018-06-20T08:48:52.064Z,89.60
2018-06-20T08:51:21.360Z,88.20
2018-06-20T08:53:50.649Z,88.70
2018-06-20T08:56:19.864Z,87.50
2018-06-20T08:58:49.192Z,84.00
2018-06-20T09:01:18.609Z,86.70
2018-06-20T09:03:47.907Z,85.10
2018-06-20T09:06:22.355Z,86.10
2018-06-20T09:08:56.802Z,87.80
2018-06-20T09:11:31.107Z,85.10
2018-06-20T09:14:05.496Z,85.30
2018-06-20T09:16:39.809Z,85.60
2018-06-20T09:19:14.029Z,84.40
2018-06-20T09:21:43.570Z,83.30
2018-06-20T09:24:12.854Z,82.80
2018-06-20T09:26:42.089Z,82.70
2018-06-20T09:29:11.361Z,83.60
2018-06-20T09:31:40.661Z,84.70
2018-06-20T09:34:10.003Z,82.90
2018-06-20T09:36:39.516Z,81.60
2018-06-20T09:39:08.920Z,78.90
2018-06-20T09:41:38.375Z,78.30
2018-06-20T09:44:07.815Z,76.40
2018-06-20T09:46:37.171Z,77.30
2018-06-20T09:49:06.515Z,76.50
2018-06-20T09:54:04.670Z,78.00
2018-06-20T09:56:34.002Z,78.00
2018-06-20T09:59:08.487Z,81.80
2018-06-20T10:01:42.882Z,78.80
2018-06-20T10:04:17.436Z,77.80
2018-06-20T10:06:52.083Z,77.40
2018-06-20T10:09:26.472Z,76.20
2018-06-20T10:12:01.407Z,75.40
2018-06-20T10:14:30.702Z,77.20
2018-06-20T10:17:00.117Z,76.20
2018-06-20T10:19:29.443Z,79.50
2018-06-20T10:21:58.785Z,75.60
2018-06-20T10:24:28.139Z,74.00
2018-06-20T10:26:57.551Z,74.60
2018-06-20T10:29:26.893Z,72.30
2018-06-20T10:31:56.396Z,76.50
2018-06-20T10:34:25.733Z,74.30
2018-06-20T10:36:55.068Z,78.10
2018-06-20T10:39:24.462Z,76.00
2018-06-20T10:41:53.809Z,74.90
2018-06-20T10:44:23.746Z,75.30
2018-06-20T10:46:57.993Z,74.40
2018-06-20T10:49:27.351Z,75.30
2018-06-20T10:51:56.817Z,74.40
2018-06-20T10:54:26.181Z,71.10
2018-06-20T10:57:00.515Z,72.00
2018-06-20T10:59:34.945Z,73.90
2018-06-20T11:02:09.449Z,71.90
2018-06-20T11:04:43.695Z,71.50
2018-06-20T11:09:52.142Z,73.60
2018-06-20T11:12:26.375Z,70.20
2018-06-20T11:14:55.766Z,70.30
2018-06-20T11:17:25.144Z,74.20
2018-06-20T11:19:54.620Z,73.80
2018-06-20T11:22:23.957Z,73.60
2018-06-20T11:27:22.028Z,69.10
2018-06-20T11:29:51.352Z,69.80
2018-06-20T11:32:20.749Z,67.10
2018-06-20T11:34:50.123Z,69.00
2018-06-20T11:37:19.441Z,71.80
2018-06-20T11:39:55.100Z,72.80
2018-06-20T11:42:24.530Z,70.40
2018-06-20T11:44:53.867Z,66.10
2018-06-20T11:47:29.240Z,66.00
2018-06-20T11:49:58.582Z,69.80
2018-06-20T11:52:33.046Z,66.90
2018-06-20T11:55:07.543Z,67.70
2018-06-20T11:57:36.856Z,65.50
2018-06-20T12:00:11.226Z,66.20
2018-06-20T12:02:45.684Z,64.80
2018-06-20T12:05:20.012Z,64.00
2018-06-20T12:07:54.636Z,65.30
2018-06-20T12:10:29.113Z,61.60
2018-06-20T12:13:03.652Z,61.90
2018-06-20T12:15:38.150Z,62.20
2018-06-20T12:18:12.630Z,64.20
2018-06-20T12:20:47.241Z,65.00
2018-06-20T12:23:21.724Z,62.70
2018-06-20T12:25:56.298Z,59.20
2018-06-20T12:28:30.720Z,58.00
2018-06-20T12:31:05.188Z,60.80
2018-06-20T12:33:39.633Z,56.30
2018-06-20T12:36:14.070Z,53.90
2018-06-20T12:38:49.248Z,55.10
2018-06-20T12:41:23.749Z,55.70
2018-06-20T12:43:58.020Z,55.50
2018-06-20T12:46:32.682Z,52.70
2018-06-20T12:49:02.083Z,52.80
2018-06-20T12:51:31.494Z,54.90
2018-06-20T12:54:00.774Z,52.80
2018-06-20T12:56:30.096Z,52.00
2018-06-20T12:58:59.417Z,50.30
2018-06-20T13:01:28.898Z,50.90
2018-06-20T13:03:58.266Z,54.50
2018-06-20T13:06:33.920Z,52.70
2018-06-20T13:09:03.348Z,52.00
2018-06-20T13:11:32.671Z,52.20
2018-06-20T13:14:01.999Z,51.40
2018-06-20T13:16:31.381Z,52.90
2018-06-20T13:19:01.758Z,52.30
2018-06-20T13:21:31.320Z,52.90
2018-06-20T13:24:00.612Z,49.90
2018-06-20T13:26:30.028Z,52.40
2018-06-20T13:31:33.541Z,51.20
2018-06-20T13:34:07.863Z,52.50
2018-06-20T13:36:42.241Z,50.30
2018-06-20T13:39:17.499Z,53.10
2018-06-20T13:42:03.617Z,48.80
2018-06-20T13:44:32.969Z,47.70
2018-06-20T13:47:07.488Z,46.70
2018-06-20T13:49:36.834Z,46.80
2018-06-20T13:52:06.830Z,46.90
2018-06-20T13:54:36.119Z,48.80
2018-06-20T13:57:05.545Z,46.60
2018-06-20T13:59:34.876Z,45.90
2018-06-20T14:02:04.329Z,45.80
2018-06-20T14:04:33.645Z,45.90
2018-06-20T14:07:02.982Z,45.00
2018-06-20T14:09:32.443Z,46.40
2018-06-20T14:12:01.864Z,45.50
2018-06-20T14:14:31.195Z,44.40
2018-06-20T14:17:00.459Z,41.40
2018-06-20T14:19:34.771Z,44.50
2018-06-20T14:22:04.121Z,42.80
2018-06-20T14:24:33.494Z,42.60
2018-06-20T14:27:02.858Z,41.90
2018-06-20T14:29:48.790Z,44.30
2018-06-20T14:33:23.823Z,42.40
2018-06-20T14:35:58.302Z,44.10
2018-06-20T14:38:32.636Z,43.80
2018-06-20T14:41:20.486Z,38.00
2018-06-20T14:43:55.490Z,39.00
2018-06-20T14:46:26.151Z,38.30
2018-06-20T14:48:55.468Z,38.10
2018-06-20T14:51:24.984Z,37.00
2018-06-20T14:53:54.308Z,37.90
2018-06-20T14:56:23.772Z,36.90
2018-06-20T14:58:53.116Z,38.30
2018-06-20T15:01:22.553Z,36.60
2018-06-20T15:03:52.045Z,38.50
2018-06-20T15:06:21.404Z,38.10
2018-06-20T15:08:50.938Z,40.10
2018-06-20T15:11:20.521Z,39.10
2018-06-20T15:13:49.851Z,39.60
2018-06-20T15:16:24.288Z,39.00
2018-06-20T15:18:53.583Z,40.50
2018-06-20T15:21:22.981Z,40.30
2018-06-20T15:23:52.321Z,35.90
2018-06-20T15:26:27.149Z,38.80
2018-06-20T15:29:02.404Z,39.70
2018-06-20T15:31:36.878Z,39.80
2018-06-20T15:34:11.246Z,39.40
2018-06-20T15:36:45.640Z,38.40
2018-06-20T15:39:15.048Z,39.00
2018-06-20T15:41:44.500Z,40.20
2018-06-20T15:44:13.861Z,39.60
2018-06-20T15:46:43.136Z,40.90
2018-06-20T15:49:16.653Z,42.00
2018-06-20T15:51:46.077Z,40.80
2018-06-20T15:54:15.447Z,41.20
2018-06-20T15:56:44.897Z,40.80
2018-06-20T15:59:14.338Z,41.00
2018-06-20T16:01:44.099Z,43.90
2018-06-20T16:04:13.770Z,42.90
2018-06-20T16:06:43.556Z,41.40
2018-06-20T16:09:17.867Z,40.50
2018-06-20T16:11:47.442Z,42.00
2018-06-20T16:14:16.775Z,43.50
2018-06-20T16:16:46.111Z,44.00
2018-06-20T16:19:20.426Z,42.30
2018-06-20T16:21:54.972Z,41.80
2018-06-20T16:24:29.459Z,42.90
2018-06-20T16:27:03.862Z,43.20
2018-06-20T16:29:38.414Z,43.40
2018-06-20T16:32:07.860Z,43.70
2018-06-20T16:34:37.164Z,42.60
2018-06-20T16:37:06.539Z,42.80
2018-06-20T16:39:35.959Z,44.80
2018-06-20T16:42:05.437Z,46.70
2018-06-20T16:44:34.754Z,49.70
2018-06-20T16:47:04.093Z,51.00
2018-06-20T16:49:33.425Z,54.00
2018-06-20T16:52:02.857Z,53.20
2018-06-20T16:54:32.221Z,54.00
2018-06-20T16:57:01.545Z,54.80
2018-06-20T16:59:31.065Z,56.70
2018-06-20T17:02:05.636Z,57.30
2018-06-20T17:04:34.952Z,58.70
2018-06-20T17:07:04.333Z,59.50
2018-06-20T17:09:34.610Z,59.00
2018-06-20T17:12:09.089Z,60.10
2018-06-20T17:14:43.840Z,60.20
2018-06-20T17:18:15.985Z,62.60
2018-06-20T17:21:52.079Z,63.30
2018-06-20T17:24:26.545Z,62.80
2018-06-20T17:26:55.877Z,63.80
2018-06-20T17:29:25.210Z,64.70
2018-06-20T17:31:54.602Z,65.90
2018-06-20T17:34:24.009Z,65.90
2018-06-20T17:36:53.368Z,67.30
2018-06-20T17:39:22.713Z,67.10
2018-06-20T17:41:52.751Z,66.80
2018-06-20T17:44:22.064Z,68.60
2018-06-20T17:46:51.920Z,70.30
2018-06-20T17:49:21.257Z,73.20
2018-06-20T17:51:50.597Z,73.00
2018-06-20T17:54:19.943Z,74.00
2018-06-20T17:56:49.288Z,74.90
2018-06-20T17:59:18.652Z,75.20
2018-06-20T18:01:48.128Z,76.10
2018-06-20T18:04:22.440Z,76.50
2018-06-20T18:06:58.073Z,75.40
2018-06-20T18:09:32.682Z,76.40
2018-06-20T18:12:08.244Z,75.50
2018-06-20T18:14:42.718Z,76.40
2018-06-20T18:17:12.123Z,80.10
2018-06-20T18:19:41.484Z,79.60
2018-06-20T18:22:10.889Z,80.30
2018-06-20T18:24:40.250Z,79.20
2018-06-20T18:27:09.759Z,80.20
2018-06-20T18:29:39.109Z,81.50
2018-06-20T18:32:08.532Z,80.70
2018-06-20T18:34:38.109Z,80.30
2018-06-20T18:37:07.481Z,79.70
2018-06-20T18:39:41.873Z,81.80
2018-06-20T18:42:11.277Z,79.60
2018-06-20T18:44:40.569Z,79.30
2018-06-20T18:47:09.960Z,78.70
2018-06-20T18:49:39.312Z,77.30
2018-06-20T18:52:08.705Z,77.60
2018-06-20T18:54:37.995Z,76.60
2018-06-20T18:57:11.379Z,75.10
2018-06-20T18:59:45.700Z,75.70
2018-06-20T19:02:20.083Z,76.70
2018-06-20T19:04:54.759Z,77.40
2018-06-20T19:07:30.091Z,76.10
2018-06-20T19:09:59.403Z,80.70
2018-06-20T19:12:28.700Z,77.90
2018-06-20T19:14:58.413Z,77.90
2018-06-20T19:17:27.723Z,79.30
2018-06-20T19:19:57.065Z,79.90
2018-06-20T19:22:26.482Z,77.10
2018-06-20T19:24:55.782Z,78.50
2018-06-20T19:27:25.061Z,80.60
2018-06-20T19:29:54.428Z,77.90
2018-06-20T19:32:24.358Z,77.60
2018-06-20T19:34:53.612Z,80.60
2018-06-20T19:37:22.899Z,80.80
2018-06-20T19:39:53.428Z,81.10
2018-06-20T19:42:24.883Z,84.40
2018-06-20T19:44:54.309Z,83.30
2018-06-20T19:47:23.596Z,80.60
2018-06-20T19:49:52.940Z,82.60
2018-06-20T19:52:22.324Z,82.90
2018-06-20T19:54:51.625Z,83.40
2018-06-20T19:59:49.700Z,84.40
2018-06-20T20:03:21.656Z,84.30
2018-06-20T20:05:51.056Z,84.00
2018-06-20T20:08:20.736Z,83.40
2018-06-20T20:10:50.089Z,82.90
2018-06-20T20:13:19.381Z,82.80
2018-06-20T20:15:48.656Z,84.80
2018-06-20T20:18:17.963Z,84.00
2018-06-20T20:20:47.269Z,86.10
2018-06-20T20:23:16.705Z,87.10
2018-06-20T20:25:45.969Z,87.20
2018-06-20T20:28:15.245Z,88.50
2018-06-20T20:30:44.593Z,87.80
2018-06-20T20:33:13.839Z,87.30
2018-06-20T20:35:43.172Z,87.40
2018-06-20T20:38:12.464Z,87.80
2018-06-20T20:40:41.920Z,87.90
2018-06-20T20:43:13.846Z,87.80
2018-06-20T20:45:45.441Z,87.30
2018-06-20T20:48:16.037Z,87.50
2018-06-20T20:50:57.131Z,87.70
2018-06-20T20:53:32.697Z,88.60
2018-06-20T20:58:34.620Z,89.40
2018-06-20T21:01:06.266Z,88.80
2018-06-20T21:03:36.915Z,90.00
2018-06-20T21:06:07.461Z,90.30
2018-06-20T21:08:38.205Z,90.30
2018-06-20T21:11:08.920Z,90.20
2018-06-20T21:13:39.353Z,90.20
2018-06-20T21:16:08.600Z,90.40
2018-06-20T21:18:37.829Z,89.30
2018-06-20T21:21:07.508Z,88.40
2018-06-20T21:23:36.884Z,87.80
2018-06-20T21:26:06.212Z,88.00
2018-06-20T21:28:35.468Z,87.30
2018-06-20T21:31:04.736Z,87.70
2018-06-20T21:33:33.977Z,87.00
2018-06-20T21:36:03.244Z,86.80
2018-06-20T21:38:32.465Z,85.90
2018-06-20T21:41:01.717Z,86.30
2018-06-20T21:43:31.220Z,84.90
2018-06-20T21:46:00.444Z,85.60
2018-06-20T21:48:29.682Z,84.90
2018-06-20T21:50:58.930Z,84.90
2018-06-20T21:53:28.138Z,85.60
2018-06-20T21:55:57.570Z,85.30
2018-06-20T21:58:26.808Z,85.50
2018-06-20T22:00:56.248Z,85.00
2018-06-20T22:03:25.472Z,86.40
2018-06-20T22:05:54.712Z,85.80
2018-06-20T22:08:23.931Z,85.50
2018-06-20T22:10:53.241Z,86.10
2018-06-20T22:13:22.432Z,85.70
2018-06-20T22:15:51.646Z,85.80
2018-06-20T22:18:20.860Z,86.20
2018-06-20T22:20:50.162Z,87.30
2018-06-20T22:23:19.403Z,88.80
2018-06-20T22:25:48.656Z,89.90
2018-06-20T22:28:17.962Z,89.60
2018-06-20T22:30:47.336Z,90.10
2018-06-20T22:33:16.605Z,90.10
2018-06-20T22:35:45.904Z,89.40
2018-06-20T22:38:15.136Z,89.10
2018-06-20T22:40:44.436Z,89.10
2018-06-20T22:43:13.660Z,88.60
2018-06-20T22:45:42.906Z,89.10
2018-06-20T22:48:12.616Z,89.20
2018-06-20T22:50:41.964Z,89.50
2018-06-20T22:53:11.263Z,89.30
2018-06-20T22:55:40.481Z,90.20
2018-06-20T22:58:09.748Z,90.40
2018-06-20T23:00:39.184Z,90.60
2018-06-20T23:03:08.463Z,90.20
2018-06-20T23:05:37.712Z,90.20
2018-06-20T23:08:06.944Z,90.20
2018-06-20T23:10:36.238Z,90.20
2018-06-20T23:13:05.642Z,90.10
2018-06-20T23:15:34.873Z,90.10
2018-06-20T23:18:04.216Z,90.10
2018-06-20T23:20:33.984Z,89.90
2018-06-20T23:23:03.564Z,90.20
2018-06-20T23:25:32.831Z,90.10
2018-06-20T23:28:02.064Z,90.30
2018-06-20T23:30:31.354Z,90.30
2018-06-20T23:33:00.732Z,90.30
2018-06-20T23:35:29.996Z,90.20
2018-06-20T23:40:28.048Z,90.60
2018-06-20T23:42:57.290Z,91.40
2018-06-20T23:47:55.244Z,92.70
2018-06-20T23:50:24.462Z,92.80
2018-06-20T23:52:54.021Z,92.80
2018-06-20T23:55:23.269Z,92.50
